sensor_id;sensor_type;location;lat;lon;timestamp;P1;durP1;ratioP1;P2;durP2;ratioP2
13493;SDS011;6819;50.886;4.332;2022-07-30T00:00:41;9.38;;;4.10;;
13493;SDS011;6819;50.886;4.332;2022-07-30T00:03:07;9.75;;;3.90;;
13493;SDS011;6819;50.886;4.332;2022-07-30T00:05:33;9.43;;;4.18;;
13493;SDS011;6819;50.886;4.332;2022-07-30T00:07:59;8.45;;;3.88;;
13493;SDS011;6819;50.886;4.332;2022-07-30T00:10:25;13.02;;;4.50;;
13493;SDS011;6819;50.886;4.332;2022-07-30T00:12:51;11.23;;;4.35;;
13493;SDS011;6819;50.886;4.332;2022-07-30T00:15:17;10.32;;;3.92;;
13493;SDS011;6819;50.886;4.332;2022-07-30T00:17:43;11.75;;;4.20;;
13493;SDS011;6819;50.886;4.332;2022-07-30T00:20:09;9.57;;;4.00;;
13493;SDS011;6819;50.886;4.332;2022-07-30T00:22:36;11.48;;;4.40;;
13493;SDS011;6819;50.886;4.332;2022-07-30T00:25:02;8.98;;;4.32;;
13493;SDS011;6819;50.886;4.332;2022-07-30T00:27:28;10.70;;;4.78;;
13493;SDS011;6819;50.886;4.332;2022-07-30T00:29:55;8.32;;;4.18;;
13493;SDS011;6819;50.886;4.332;2022-07-30T00:32:21;9.48;;;4.70;;
13493;SDS011;6819;50.886;4.332;2022-07-30T00:34:47;10.90;;;4.57;;
13493;SDS011;6819;50.886;4.332;2022-07-30T00:37:13;12.27;;;5.57;;
13493;SDS011;6819;50.886;4.332;2022-07-30T00:39:39;10.00;;;5.53;;
13493;SDS011;6819;50.886;4.332;2022-07-30T00:42:05;14.82;;;6.32;;
13493;SDS011;6819;50.886;4.332;2022-07-30T00:44:31;12.18;;;6.05;;
13493;SDS011;6819;50.886;4.332;2022-07-30T00:46:57;18.30;;;5.97;;
13493;SDS011;6819;50.886;4.332;2022-07-30T00:49:23;9.65;;;5.85;;
13493;SDS011;6819;50.886;4.332;2022-07-30T00:51:49;17.05;;;5.78;;
13493;SDS011;6819;50.886;4.332;2022-07-30T00:54:16;14.35;;;6.28;;
13493;SDS011;6819;50.886;4.332;2022-07-30T00:56:42;11.82;;;5.85;;
13493;SDS011;6819;50.886;4.332;2022-07-30T00:59:08;9.90;;;5.43;;
13493;SDS011;6819;50.886;4.332;2022-07-30T01:01:34;14.15;;;6.65;;
13493;SDS011;6819;50.886;4.332;2022-07-30T01:04:00;10.13;;;6.90;;
13493;SDS011;6819;50.886;4.332;2022-07-30T01:06:27;10.70;;;6.00;;
13493;SDS011;6819;50.886;4.332;2022-07-30T01:08:53;12.63;;;6.10;;
13493;SDS011;6819;50.886;4.332;2022-07-30T01:11:19;11.90;;;6.15;;
13493;SDS011;6819;50.886;4.332;2022-07-30T01:13:45;9.55;;;5.55;;
13493;SDS011;6819;50.886;4.332;2022-07-30T01:16:12;12.13;;;6.20;;
13493;SDS011;6819;50.886;4.332;2022-07-30T01:18:38;21.27;;;6.60;;
13493;SDS011;6819;50.886;4.332;2022-07-30T01:21:27;11.20;;;6.47;;
13493;SDS011;6819;50.886;4.332;2022-07-30T01:23:55;11.70;;;6.20;;
13493;SDS011;6819;50.886;4.332;2022-07-30T01:26:25;8.70;;;5.90;;
13493;SDS011;6819;50.886;4.332;2022-07-30T01:28:52;11.75;;;5.93;;
13493;SDS011;6819;50.886;4.332;2022-07-30T01:31:19;10.85;;;6.10;;
13493;SDS011;6819;50.886;4.332;2022-07-30T01:33:46;10.85;;;6.25;;
13493;SDS011;6819;50.886;4.332;2022-07-30T01:36:13;17.60;;;7.43;;
13493;SDS011;6819;50.886;4.332;2022-07-30T01:38:40;15.38;;;7.53;;
13493;SDS011;6819;50.886;4.332;2022-07-30T01:41:07;15.02;;;6.55;;
13493;SDS011;6819;50.886;4.332;2022-07-30T01:43:34;11.13;;;5.65;;
13493;SDS011;6819;50.886;4.332;2022-07-30T01:46:01;10.88;;;5.82;;
13493;SDS011;6819;50.886;4.332;2022-07-30T01:48:28;16.90;;;6.68;;
13493;SDS011;6819;50.886;4.332;2022-07-30T01:50:55;10.20;;;6.47;;
13493;SDS011;6819;50.886;4.332;2022-07-30T01:53:23;10.13;;;6.18;;
13493;SDS011;6819;50.886;4.332;2022-07-30T01:55:49;15.13;;;6.57;;
13493;SDS011;6819;50.886;4.332;2022-07-30T01:58:17;11.18;;;5.65;;
13493;SDS011;6819;50.886;4.332;2022-07-30T02:00:45;11.55;;;6.60;;
13493;SDS011;6819;50.886;4.332;2022-07-30T02:03:13;10.20;;;6.05;;
13493;SDS011;6819;50.886;4.332;2022-07-30T02:05:39;12.82;;;6.50;;
13493;SDS011;6819;50.886;4.332;2022-07-30T02:08:10;15.55;;;6.65;;
13493;SDS011;6819;50.886;4.332;2022-07-30T02:10:41;13.45;;;6.25;;
13493;SDS011;6819;50.886;4.332;2022-07-30T02:13:09;12.90;;;6.50;;
13493;SDS011;6819;50.886;4.332;2022-07-30T02:15:42;10.48;;;6.28;;
13493;SDS011;6819;50.886;4.332;2022-07-30T02:20:58;14.57;;;6.57;;
13493;SDS011;6819;50.886;4.332;2022-07-30T02:23:25;21.17;;;7.72;;
13493;SDS011;6819;50.886;4.332;2022-07-30T02:25:51;15.73;;;7.22;;
13493;SDS011;6819;50.886;4.332;2022-07-30T02:28:17;12.52;;;7.40;;
13493;SDS011;6819;50.886;4.332;2022-07-30T02:30:51;13.90;;;7.05;;
13493;SDS011;6819;50.886;4.332;2022-07-30T02:33:20;15.18;;;7.00;;
13493;SDS011;6819;50.886;4.332;2022-07-30T02:35:47;16.08;;;8.02;;
13493;SDS011;6819;50.886;4.332;2022-07-30T02:38:14;12.05;;;7.63;;
13493;SDS011;6819;50.886;4.332;2022-07-30T02:40:42;13.05;;;7.93;;
13493;SDS011;6819;50.886;4.332;2022-07-30T02:43:08;18.23;;;7.95;;
13493;SDS011;6819;50.886;4.332;2022-07-30T02:45:35;11.35;;;8.25;;
13493;SDS011;6819;50.886;4.332;2022-07-30T02:48:03;16.08;;;7.43;;
13493;SDS011;6819;50.886;4.332;2022-07-30T02:50:30;24.80;;;11.48;;
13493;SDS011;6819;50.886;4.332;2022-07-30T02:52:57;18.13;;;7.63;;
13493;SDS011;6819;50.886;4.332;2022-07-30T02:55:24;10.88;;;7.70;;
13493;SDS011;6819;50.886;4.332;2022-07-30T02:57:51;16.40;;;8.57;;
13493;SDS011;6819;50.886;4.332;2022-07-30T03:00:18;14.63;;;7.43;;
13493;SDS011;6819;50.886;4.332;2022-07-30T03:02:45;11.57;;;8.30;;
13493;SDS011;6819;50.886;4.332;2022-07-30T03:05:12;15.20;;;8.32;;
13493;SDS011;6819;50.886;4.332;2022-07-30T03:07:39;15.25;;;8.13;;
13493;SDS011;6819;50.886;4.332;2022-07-30T03:10:06;13.60;;;8.00;;
13493;SDS011;6819;50.886;4.332;2022-07-30T03:12:32;18.38;;;8.32;;
13493;SDS011;6819;50.886;4.332;2022-07-30T03:14:59;10.95;;;7.50;;
13493;SDS011;6819;50.886;4.332;2022-07-30T03:17:27;12.07;;;8.05;;
13493;SDS011;6819;50.886;4.332;2022-07-30T03:19:54;16.67;;;8.32;;
13493;SDS011;6819;50.886;4.332;2022-07-30T03:22:21;18.15;;;8.68;;
13493;SDS011;6819;50.886;4.332;2022-07-30T03:24:47;14.00;;;8.55;;
13493;SDS011;6819;50.886;4.332;2022-07-30T03:27:14;12.57;;;9.30;;
13493;SDS011;6819;50.886;4.332;2022-07-30T03:29:41;17.98;;;9.27;;
13493;SDS011;6819;50.886;4.332;2022-07-30T03:32:07;14.25;;;8.75;;
13493;SDS011;6819;50.886;4.332;2022-07-30T03:34:34;16.90;;;8.73;;
13493;SDS011;6819;50.886;4.332;2022-07-30T03:37:04;13.48;;;8.88;;
13493;SDS011;6819;50.886;4.332;2022-07-30T03:39:34;14.70;;;8.25;;
13493;SDS011;6819;50.886;4.332;2022-07-30T03:42:00;17.25;;;9.15;;
13493;SDS011;6819;50.886;4.332;2022-07-30T03:44:26;13.05;;;8.32;;
13493;SDS011;6819;50.886;4.332;2022-07-30T03:46:53;15.10;;;8.32;;
13493;SDS011;6819;50.886;4.332;2022-07-30T03:49:21;17.27;;;9.60;;
13493;SDS011;6819;50.886;4.332;2022-07-30T03:51:47;13.55;;;8.38;;
13493;SDS011;6819;50.886;4.332;2022-07-30T03:54:14;18.65;;;9.23;;
13493;SDS011;6819;50.886;4.332;2022-07-30T03:56:41;16.98;;;10.32;;
13493;SDS011;6819;50.886;4.332;2022-07-30T03:59:07;16.10;;;9.15;;
13493;SDS011;6819;50.886;4.332;2022-07-30T04:01:33;16.80;;;9.98;;
13493;SDS011;6819;50.886;4.332;2022-07-30T04:04:03;15.48;;;9.77;;
13493;SDS011;6819;50.886;4.332;2022-07-30T04:06:30;17.65;;;9.95;;
13493;SDS011;6819;50.886;4.332;2022-07-30T04:08:56;17.08;;;10.25;;
13493;SDS011;6819;50.886;4.332;2022-07-30T04:11:23;16.60;;;10.95;;
13493;SDS011;6819;50.886;4.332;2022-07-30T04:13:49;14.80;;;9.60;;
13493;SDS011;6819;50.886;4.332;2022-07-30T04:16:19;22.10;;;11.07;;
13493;SDS011;6819;50.886;4.332;2022-07-30T04:18:48;15.68;;;9.75;;
13493;SDS011;6819;50.886;4.332;2022-07-30T04:21:15;15.38;;;9.82;;
13493;SDS011;6819;50.886;4.332;2022-07-30T04:23:42;15.73;;;9.98;;
13493;SDS011;6819;50.886;4.332;2022-07-30T04:26:09;24.30;;;10.50;;
13493;SDS011;6819;50.886;4.332;2022-07-30T04:28:36;16.38;;;9.48;;
13493;SDS011;6819;50.886;4.332;2022-07-30T04:31:02;16.75;;;10.32;;
13493;SDS011;6819;50.886;4.332;2022-07-30T04:33:28;19.30;;;9.95;;
13493;SDS011;6819;50.886;4.332;2022-07-30T04:35:54;21.52;;;10.63;;
13493;SDS011;6819;50.886;4.332;2022-07-30T04:38:20;17.02;;;10.10;;
13493;SDS011;6819;50.886;4.332;2022-07-30T04:40:47;18.10;;;10.38;;
13493;SDS011;6819;50.886;4.332;2022-07-30T04:43:13;16.23;;;11.30;;
13493;SDS011;6819;50.886;4.332;2022-07-30T04:45:39;16.27;;;11.23;;
13493;SDS011;6819;50.886;4.332;2022-07-30T04:48:06;18.70;;;11.30;;
13493;SDS011;6819;50.886;4.332;2022-07-30T04:50:32;18.50;;;11.52;;
13493;SDS011;6819;50.886;4.332;2022-07-30T04:52:59;24.77;;;11.32;;
13493;SDS011;6819;50.886;4.332;2022-07-30T04:55:25;19.13;;;12.05;;
13493;SDS011;6819;50.886;4.332;2022-07-30T04:57:52;17.98;;;11.32;;
13493;SDS011;6819;50.886;4.332;2022-07-30T05:00:18;19.30;;;11.10;;
13493;SDS011;6819;50.886;4.332;2022-07-30T05:02:45;17.50;;;11.55;;
13493;SDS011;6819;50.886;4.332;2022-07-30T05:05:11;20.13;;;11.98;;
13493;SDS011;6819;50.886;4.332;2022-07-30T05:07:39;20.92;;;11.98;;
13493;SDS011;6819;50.886;4.332;2022-07-30T05:10:06;19.40;;;11.95;;
13493;SDS011;6819;50.886;4.332;2022-07-30T05:12:35;19.27;;;12.43;;
13493;SDS011;6819;50.886;4.332;2022-07-30T05:15:05;20.70;;;13.02;;
13493;SDS011;6819;50.886;4.332;2022-07-30T05:17:32;23.20;;;12.73;;
13493;SDS011;6819;50.886;4.332;2022-07-30T05:19:58;18.92;;;12.43;;
13493;SDS011;6819;50.886;4.332;2022-07-30T05:22:24;23.45;;;12.75;;
13493;SDS011;6819;50.886;4.332;2022-07-30T05:24:54;23.33;;;12.15;;
13493;SDS011;6819;50.886;4.332;2022-07-30T05:27:20;18.65;;;11.43;;
13493;SDS011;6819;50.886;4.332;2022-07-30T05:29:46;22.17;;;13.85;;
13493;SDS011;6819;50.886;4.332;2022-07-30T05:32:12;23.17;;;13.02;;
13493;SDS011;6819;50.886;4.332;2022-07-30T05:34:38;20.42;;;12.70;;
13493;SDS011;6819;50.886;4.332;2022-07-30T05:37:04;22.73;;;12.98;;
13493;SDS011;6819;50.886;4.332;2022-07-30T05:39:30;21.60;;;12.75;;
13493;SDS011;6819;50.886;4.332;2022-07-30T05:41:56;16.35;;;11.32;;
13493;SDS011;6819;50.886;4.332;2022-07-30T05:44:22;19.27;;;11.98;;
13493;SDS011;6819;50.886;4.332;2022-07-30T05:46:48;21.38;;;12.23;;
13493;SDS011;6819;50.886;4.332;2022-07-30T05:49:14;23.77;;;13.20;;
13493;SDS011;6819;50.886;4.332;2022-07-30T05:51:40;20.73;;;12.23;;
13493;SDS011;6819;50.886;4.332;2022-07-30T05:54:07;23.85;;;13.00;;
13493;SDS011;6819;50.886;4.332;2022-07-30T05:56:33;17.65;;;12.75;;
13493;SDS011;6819;50.886;4.332;2022-07-30T05:59:00;20.92;;;12.40;;
13493;SDS011;6819;50.886;4.332;2022-07-30T06:01:26;16.92;;;11.00;;
13493;SDS011;6819;50.886;4.332;2022-07-30T06:03:52;18.38;;;12.95;;
13493;SDS011;6819;50.886;4.332;2022-07-30T06:06:18;20.50;;;11.98;;
13493;SDS011;6819;50.886;4.332;2022-07-30T06:08:44;20.15;;;11.82;;
13493;SDS011;6819;50.886;4.332;2022-07-30T06:11:10;18.67;;;11.15;;
13493;SDS011;6819;50.886;4.332;2022-07-30T06:13:36;18.85;;;12.38;;
13493;SDS011;6819;50.886;4.332;2022-07-30T06:16:02;17.90;;;11.55;;
13493;SDS011;6819;50.886;4.332;2022-07-30T06:18:29;21.08;;;12.30;;
13493;SDS011;6819;50.886;4.332;2022-07-30T06:20:55;19.42;;;10.80;;
13493;SDS011;6819;50.886;4.332;2022-07-30T06:23:21;16.92;;;10.15;;
13493;SDS011;6819;50.886;4.332;2022-07-30T06:25:48;27.83;;;11.20;;
13493;SDS011;6819;50.886;4.332;2022-07-30T06:28:14;14.50;;;8.82;;
13493;SDS011;6819;50.886;4.332;2022-07-30T06:30:41;16.90;;;9.45;;
13493;SDS011;6819;50.886;4.332;2022-07-30T06:33:09;16.25;;;9.57;;
13493;SDS011;6819;50.886;4.332;2022-07-30T06:35:35;11.43;;;7.32;;
13493;SDS011;6819;50.886;4.332;2022-07-30T06:38:01;11.45;;;5.95;;
13493;SDS011;6819;50.886;4.332;2022-07-30T06:40:27;13.48;;;6.30;;
13493;SDS011;6819;50.886;4.332;2022-07-30T06:42:54;13.25;;;6.07;;
13493;SDS011;6819;50.886;4.332;2022-07-30T06:45:20;8.38;;;6.07;;
13493;SDS011;6819;50.886;4.332;2022-07-30T06:47:46;10.15;;;6.13;;
13493;SDS011;6819;50.886;4.332;2022-07-30T06:50:12;13.45;;;6.05;;
13493;SDS011;6819;50.886;4.332;2022-07-30T06:52:38;11.52;;;5.75;;
13493;SDS011;6819;50.886;4.332;2022-07-30T06:55:04;13.65;;;6.00;;
13493;SDS011;6819;50.886;4.332;2022-07-30T06:57:30;15.75;;;5.88;;
13493;SDS011;6819;50.886;4.332;2022-07-30T06:59:56;14.60;;;5.88;;
13493;SDS011;6819;50.886;4.332;2022-07-30T07:02:23;9.77;;;5.50;;
13493;SDS011;6819;50.886;4.332;2022-07-30T07:04:49;12.05;;;5.05;;
13493;SDS011;6819;50.886;4.332;2022-07-30T07:07:15;21.13;;;6.53;;
13493;SDS011;6819;50.886;4.332;2022-07-30T07:09:41;12.23;;;5.10;;
13493;SDS011;6819;50.886;4.332;2022-07-30T07:12:07;14.70;;;5.47;;
13493;SDS011;6819;50.886;4.332;2022-07-30T07:14:33;12.73;;;5.57;;
13493;SDS011;6819;50.886;4.332;2022-07-30T07:16:59;10.90;;;5.10;;
13493;SDS011;6819;50.886;4.332;2022-07-30T07:19:25;13.63;;;5.53;;
13493;SDS011;6819;50.886;4.332;2022-07-30T07:21:51;11.63;;;5.70;;
13493;SDS011;6819;50.886;4.332;2022-07-30T07:24:17;10.50;;;4.93;;
13493;SDS011;6819;50.886;4.332;2022-07-30T07:26:43;8.38;;;4.68;;
13493;SDS011;6819;50.886;4.332;2022-07-30T07:29:09;9.60;;;4.97;;
13493;SDS011;6819;50.886;4.332;2022-07-30T07:31:35;12.32;;;4.20;;
13493;SDS011;6819;50.886;4.332;2022-07-30T07:34:01;7.03;;;3.22;;
13493;SDS011;6819;50.886;4.332;2022-07-30T07:36:27;3.95;;;2.40;;
13493;SDS011;6819;50.886;4.332;2022-07-30T07:38:53;5.72;;;2.40;;
13493;SDS011;6819;50.886;4.332;2022-07-30T07:41:19;7.60;;;3.30;;
13493;SDS011;6819;50.886;4.332;2022-07-30T07:43:45;10.90;;;4.75;;
13493;SDS011;6819;50.886;4.332;2022-07-30T07:46:11;8.45;;;3.35;;
13493;SDS011;6819;50.886;4.332;2022-07-30T07:48:41;6.43;;;3.00;;
13493;SDS011;6819;50.886;4.332;2022-07-30T07:51:07;7.80;;;2.88;;
13493;SDS011;6819;50.886;4.332;2022-07-30T07:53:33;4.35;;;2.63;;
13493;SDS011;6819;50.886;4.332;2022-07-30T07:55:59;9.55;;;2.58;;
13493;SDS011;6819;50.886;4.332;2022-07-30T07:58:25;6.13;;;2.58;;
13493;SDS011;6819;50.886;4.332;2022-07-30T08:00:52;10.23;;;3.00;;
13493;SDS011;6819;50.886;4.332;2022-07-30T08:03:18;6.97;;;2.70;;
13493;SDS011;6819;50.886;4.332;2022-07-30T08:05:44;8.45;;;2.75;;
13493;SDS011;6819;50.886;4.332;2022-07-30T08:08:10;4.18;;;2.20;;
13493;SDS011;6819;50.886;4.332;2022-07-30T08:10:36;9.45;;;2.58;;
13493;SDS011;6819;50.886;4.332;2022-07-30T08:13:03;4.35;;;2.03;;
13493;SDS011;6819;50.886;4.332;2022-07-30T08:15:29;3.45;;;2.00;;
13493;SDS011;6819;50.886;4.332;2022-07-30T08:17:55;4.07;;;2.10;;
13493;SDS011;6819;50.886;4.332;2022-07-30T08:20:21;7.03;;;1.85;;
13493;SDS011;6819;50.886;4.332;2022-07-30T08:22:48;5.90;;;2.53;;
13493;SDS011;6819;50.886;4.332;2022-07-30T08:25:15;5.55;;;2.10;;
13493;SDS011;6819;50.886;4.332;2022-07-30T08:27:43;3.35;;;2.17;;
13493;SDS011;6819;50.886;4.332;2022-07-30T08:30:09;2.90;;;1.65;;
13493;SDS011;6819;50.886;4.332;2022-07-30T08:32:35;2.53;;;1.50;;
13493;SDS011;6819;50.886;4.332;2022-07-30T08:35:02;3.53;;;1.95;;
13493;SDS011;6819;50.886;4.332;2022-07-30T08:37:28;8.40;;;1.63;;
13493;SDS011;6819;50.886;4.332;2022-07-30T08:39:54;4.68;;;1.60;;
13493;SDS011;6819;50.886;4.332;2022-07-30T08:42:21;2.28;;;1.23;;
13493;SDS011;6819;50.886;4.332;2022-07-30T08:44:47;2.10;;;1.23;;
13493;SDS011;6819;50.886;4.332;2022-07-30T08:47:15;2.53;;;1.20;;
13493;SDS011;6819;50.886;4.332;2022-07-30T08:49:43;4.35;;;1.40;;
13493;SDS011;6819;50.886;4.332;2022-07-30T08:52:09;7.70;;;1.58;;
13493;SDS011;6819;50.886;4.332;2022-07-30T08:54:35;4.78;;;1.80;;
13493;SDS011;6819;50.886;4.332;2022-07-30T08:57:02;5.97;;;1.67;;
13493;SDS011;6819;50.886;4.332;2022-07-30T08:59:28;6.57;;;1.73;;
13493;SDS011;6819;50.886;4.332;2022-07-30T09:01:54;6.07;;;1.70;;
13493;SDS011;6819;50.886;4.332;2022-07-30T09:04:20;8.70;;;1.65;;
13493;SDS011;6819;50.886;4.332;2022-07-30T09:06:46;4.32;;;1.75;;
13493;SDS011;6819;50.886;4.332;2022-07-30T09:09:13;4.00;;;1.80;;
13493;SDS011;6819;50.886;4.332;2022-07-30T09:11:39;3.90;;;1.73;;
13493;SDS011;6819;50.886;4.332;2022-07-30T09:14:06;5.07;;;1.80;;
13493;SDS011;6819;50.886;4.332;2022-07-30T09:16:32;3.90;;;1.60;;
13493;SDS011;6819;50.886;4.332;2022-07-30T09:19:00;4.25;;;1.65;;
13493;SDS011;6819;50.886;4.332;2022-07-30T09:21:36;2.80;;;1.50;;
13493;SDS011;6819;50.886;4.332;2022-07-30T09:24:09;3.58;;;1.60;;
13493;SDS011;6819;50.886;4.332;2022-07-30T09:29:17;2.83;;;1.42;;
13493;SDS011;6819;50.886;4.332;2022-07-30T09:31:54;6.25;;;1.80;;
13493;SDS011;6819;50.886;4.332;2022-07-30T09:36:49;3.65;;;2.00;;
13493;SDS011;6819;50.886;4.332;2022-07-30T09:39:26;5.18;;;1.88;;
13493;SDS011;6819;50.886;4.332;2022-07-30T09:41:52;5.78;;;1.85;;
13493;SDS011;6819;50.886;4.332;2022-07-30T09:44:23;4.35;;;1.90;;
13493;SDS011;6819;50.886;4.332;2022-07-30T09:46:49;7.32;;;1.88;;
13493;SDS011;6819;50.886;4.332;2022-07-30T09:49:16;5.88;;;1.88;;
13493;SDS011;6819;50.886;4.332;2022-07-30T09:51:43;5.90;;;1.60;;
13493;SDS011;6819;50.886;4.332;2022-07-30T09:54:09;4.78;;;1.88;;
13493;SDS011;6819;50.886;4.332;2022-07-30T09:56:35;4.05;;;2.00;;
13493;SDS011;6819;50.886;4.332;2022-07-30T09:59:01;3.10;;;1.65;;
13493;SDS011;6819;50.886;4.332;2022-07-30T10:01:27;2.83;;;1.70;;
13493;SDS011;6819;50.886;4.332;2022-07-30T10:03:53;4.60;;;2.00;;
13493;SDS011;6819;50.886;4.332;2022-07-30T10:06:30;3.22;;;1.70;;
13493;SDS011;6819;50.886;4.332;2022-07-30T10:08:57;8.93;;;1.85;;
13493;SDS011;6819;50.886;4.332;2022-07-30T10:11:23;9.75;;;1.85;;
13493;SDS011;6819;50.886;4.332;2022-07-30T10:13:53;5.80;;;2.00;;
13493;SDS011;6819;50.886;4.332;2022-07-30T10:16:19;3.47;;;1.80;;
13493;SDS011;6819;50.886;4.332;2022-07-30T10:18:45;2.83;;;1.55;;
13493;SDS011;6819;50.886;4.332;2022-07-30T10:21:11;2.97;;;1.50;;
13493;SDS011;6819;50.886;4.332;2022-07-30T10:23:39;5.55;;;2.42;;
13493;SDS011;6819;50.886;4.332;2022-07-30T10:26:05;4.35;;;1.70;;
13493;SDS011;6819;50.886;4.332;2022-07-30T10:28:32;3.92;;;1.83;;
13493;SDS011;6819;50.886;4.332;2022-07-30T10:30:58;6.28;;;1.75;;
13493;SDS011;6819;50.886;4.332;2022-07-30T10:33:25;7.75;;;1.80;;
13493;SDS011;6819;50.886;4.332;2022-07-30T10:35:52;3.65;;;1.73;;
13493;SDS011;6819;50.886;4.332;2022-07-30T10:38:19;3.47;;;1.75;;
13493;SDS011;6819;50.886;4.332;2022-07-30T10:40:47;5.05;;;2.10;;
13493;SDS011;6819;50.886;4.332;2022-07-30T10:43:37;5.88;;;2.05;;
13493;SDS011;6819;50.886;4.332;2022-07-30T10:46:08;4.63;;;2.28;;
13493;SDS011;6819;50.886;4.332;2022-07-30T10:48:37;7.80;;;1.80;;
13493;SDS011;6819;50.886;4.332;2022-07-30T10:51:03;5.20;;;2.22;;
13493;SDS011;6819;50.886;4.332;2022-07-30T10:56:12;5.85;;;2.15;;
13493;SDS011;6819;50.886;4.332;2022-07-30T11:06:33;7.18;;;2.00;;
13493;SDS011;6819;50.886;4.332;2022-07-30T11:09:00;5.85;;;1.67;;
13493;SDS011;6819;50.886;4.332;2022-07-30T11:13:59;4.72;;;1.70;;
13493;SDS011;6819;50.886;4.332;2022-07-30T11:19:08;6.53;;;2.15;;
13493;SDS011;6819;50.886;4.332;2022-07-30T11:21:37;4.95;;;2.08;;
13493;SDS011;6819;50.886;4.332;2022-07-30T11:24:03;4.20;;;1.92;;
13493;SDS011;6819;50.886;4.332;2022-07-30T11:31:55;4.55;;;2.00;;
13493;SDS011;6819;50.886;4.332;2022-07-30T11:37:07;5.00;;;2.00;;
13493;SDS011;6819;50.886;4.332;2022-07-30T11:44:44;9.10;;;2.40;;
13493;SDS011;6819;50.886;4.332;2022-07-30T11:47:10;6.15;;;2.17;;
13493;SDS011;6819;50.886;4.332;2022-07-30T11:49:36;3.25;;;1.92;;
13493;SDS011;6819;50.886;4.332;2022-07-30T11:52:03;5.90;;;1.95;;
13493;SDS011;6819;50.886;4.332;2022-07-30T11:54:29;6.55;;;1.88;;
13493;SDS011;6819;50.886;4.332;2022-07-30T11:56:55;4.55;;;1.80;;
13493;SDS011;6819;50.886;4.332;2022-07-30T11:59:22;7.95;;;2.33;;
13493;SDS011;6819;50.886;4.332;2022-07-30T12:01:51;3.75;;;1.80;;
13493;SDS011;6819;50.886;4.332;2022-07-30T12:04:20;4.20;;;1.70;;
13493;SDS011;6819;50.886;4.332;2022-07-30T12:06:48;5.25;;;1.90;;
13493;SDS011;6819;50.886;4.332;2022-07-30T12:09:21;3.20;;;2.00;;
13493;SDS011;6819;50.886;4.332;2022-07-30T12:11:47;4.65;;;2.10;;
13493;SDS011;6819;50.886;4.332;2022-07-30T12:14:13;4.03;;;1.70;;
13493;SDS011;6819;50.886;4.332;2022-07-30T12:16:39;3.75;;;2.00;;
13493;SDS011;6819;50.886;4.332;2022-07-30T12:19:13;6.03;;;1.85;;
13493;SDS011;6819;50.886;4.332;2022-07-30T12:21:39;5.90;;;2.30;;
13493;SDS011;6819;50.886;4.332;2022-07-30T12:24:05;2.17;;;1.52;;
13493;SDS011;6819;50.886;4.332;2022-07-30T12:26:32;5.55;;;1.90;;
13493;SDS011;6819;50.886;4.332;2022-07-30T12:29:04;3.05;;;1.50;;
13493;SDS011;6819;50.886;4.332;2022-07-30T12:31:31;2.65;;;1.83;;
13493;SDS011;6819;50.886;4.332;2022-07-30T12:33:57;4.47;;;1.90;;
13493;SDS011;6819;50.886;4.332;2022-07-30T12:36:28;6.72;;;1.95;;
13493;SDS011;6819;50.886;4.332;2022-07-30T12:38:55;6.88;;;1.90;;
13493;SDS011;6819;50.886;4.332;2022-07-30T12:41:22;4.78;;;1.80;;
13493;SDS011;6819;50.886;4.332;2022-07-30T12:46:17;7.22;;;1.98;;
13493;SDS011;6819;50.886;4.332;2022-07-30T12:48:47;2.97;;;1.80;;
13493;SDS011;6819;50.886;4.332;2022-07-30T12:51:13;5.68;;;1.65;;
13493;SDS011;6819;50.886;4.332;2022-07-30T12:53:39;3.88;;;2.38;;
13493;SDS011;6819;50.886;4.332;2022-07-30T12:56:12;3.28;;;2.20;;
13493;SDS011;6819;50.886;4.332;2022-07-30T12:58:39;1.95;;;1.55;;
13493;SDS011;6819;50.886;4.332;2022-07-30T13:01:05;2.60;;;1.80;;
13493;SDS011;6819;50.886;4.332;2022-07-30T13:03:31;4.10;;;2.00;;
13493;SDS011;6819;50.886;4.332;2022-07-30T13:06:10;2.00;;;1.67;;
13493;SDS011;6819;50.886;4.332;2022-07-30T13:08:43;7.05;;;1.88;;
13493;SDS011;6819;50.886;4.332;2022-07-30T13:11:10;6.05;;;2.00;;
13493;SDS011;6819;50.886;4.332;2022-07-30T13:13:36;6.40;;;2.10;;
13493;SDS011;6819;50.886;4.332;2022-07-30T13:16:03;3.15;;;1.60;;
13493;SDS011;6819;50.886;4.332;2022-07-30T13:18:29;3.40;;;1.83;;
13493;SDS011;6819;50.886;4.332;2022-07-30T13:20:56;5.88;;;1.92;;
13493;SDS011;6819;50.886;4.332;2022-07-30T13:23:22;4.13;;;1.80;;
13493;SDS011;6819;50.886;4.332;2022-07-30T13:25:49;5.43;;;1.70;;
13493;SDS011;6819;50.886;4.332;2022-07-30T13:28:15;4.50;;;2.25;;
13493;SDS011;6819;50.886;4.332;2022-07-30T13:30:41;3.33;;;1.88;;
13493;SDS011;6819;50.886;4.332;2022-07-30T13:33:07;4.72;;;2.50;;
13493;SDS011;6819;50.886;4.332;2022-07-30T13:35:33;5.63;;;3.25;;
13493;SDS011;6819;50.886;4.332;2022-07-30T13:37:59;8.18;;;3.72;;
13493;SDS011;6819;50.886;4.332;2022-07-30T13:40:28;4.78;;;2.38;;
13493;SDS011;6819;50.886;4.332;2022-07-30T13:42:57;5.72;;;2.78;;
13493;SDS011;6819;50.886;4.332;2022-07-30T13:45:23;4.63;;;2.28;;
13493;SDS011;6819;50.886;4.332;2022-07-30T13:47:49;6.28;;;1.80;;
13493;SDS011;6819;50.886;4.332;2022-07-30T13:50:16;2.40;;;1.73;;
13493;SDS011;6819;50.886;4.332;2022-07-30T13:52:42;2.97;;;1.65;;
13493;SDS011;6819;50.886;4.332;2022-07-30T13:55:08;5.00;;;1.80;;
13493;SDS011;6819;50.886;4.332;2022-07-30T13:57:34;8.27;;;2.15;;
13493;SDS011;6819;50.886;4.332;2022-07-30T14:00:01;2.80;;;1.83;;
13493;SDS011;6819;50.886;4.332;2022-07-30T14:02:27;2.53;;;1.80;;
13493;SDS011;6819;50.886;4.332;2022-07-30T14:04:53;10.50;;;2.03;;
13493;SDS011;6819;50.886;4.332;2022-07-30T14:07:19;2.85;;;1.70;;
13493;SDS011;6819;50.886;4.332;2022-07-30T14:09:45;5.10;;;1.95;;
13493;SDS011;6819;50.886;4.332;2022-07-30T14:12:11;2.67;;;1.90;;
13493;SDS011;6819;50.886;4.332;2022-07-30T14:14:37;2.63;;;1.60;;
13493;SDS011;6819;50.886;4.332;2022-07-30T14:17:03;4.13;;;1.90;;
13493;SDS011;6819;50.886;4.332;2022-07-30T14:19:29;7.75;;;2.03;;
13493;SDS011;6819;50.886;4.332;2022-07-30T14:21:55;2.80;;;1.83;;
13493;SDS011;6819;50.886;4.332;2022-07-30T14:24:21;2.70;;;1.80;;
13493;SDS011;6819;50.886;4.332;2022-07-30T14:26:47;4.20;;;1.63;;
13493;SDS011;6819;50.886;4.332;2022-07-30T14:29:14;12.13;;;1.75;;
13493;SDS011;6819;50.886;4.332;2022-07-30T14:31:41;3.95;;;1.67;;
13493;SDS011;6819;50.886;4.332;2022-07-30T14:34:07;2.97;;;1.63;;
13493;SDS011;6819;50.886;4.332;2022-07-30T14:36:33;4.47;;;1.80;;
13493;SDS011;6819;50.886;4.332;2022-07-30T14:39:01;3.35;;;1.83;;
13493;SDS011;6819;50.886;4.332;2022-07-30T14:41:28;2.85;;;1.77;;
13493;SDS011;6819;50.886;4.332;2022-07-30T14:43:54;2.35;;;1.60;;
13493;SDS011;6819;50.886;4.332;2022-07-30T14:46:20;5.00;;;1.70;;
13493;SDS011;6819;50.886;4.332;2022-07-30T14:48:47;9.25;;;2.05;;
13493;SDS011;6819;50.886;4.332;2022-07-30T14:51:13;5.88;;;1.60;;
13493;SDS011;6819;50.886;4.332;2022-07-30T14:53:39;1.85;;;1.50;;
13493;SDS011;6819;50.886;4.332;2022-07-30T14:56:05;6.00;;;1.80;;
13493;SDS011;6819;50.886;4.332;2022-07-30T14:58:32;4.03;;;1.70;;
13493;SDS011;6819;50.886;4.332;2022-07-30T15:00:58;3.05;;;1.65;;
13493;SDS011;6819;50.886;4.332;2022-07-30T15:03:24;2.30;;;1.67;;
13493;SDS011;6819;50.886;4.332;2022-07-30T15:05:50;2.72;;;1.60;;
13493;SDS011;6819;50.886;4.332;2022-07-30T15:08:16;3.63;;;1.65;;
13493;SDS011;6819;50.886;4.332;2022-07-30T15:10:42;3.17;;;1.55;;
13493;SDS011;6819;50.886;4.332;2022-07-30T15:13:08;5.43;;;1.73;;
13493;SDS011;6819;50.886;4.332;2022-07-30T15:15:34;4.90;;;1.98;;
13493;SDS011;6819;50.886;4.332;2022-07-30T15:18:00;2.90;;;1.73;;
13493;SDS011;6819;50.886;4.332;2022-07-30T15:20:27;6.50;;;1.80;;
13493;SDS011;6819;50.886;4.332;2022-07-30T15:22:53;2.78;;;1.60;;
13493;SDS011;6819;50.886;4.332;2022-07-30T15:25:19;2.40;;;1.60;;
13493;SDS011;6819;50.886;4.332;2022-07-30T15:27:46;3.58;;;1.60;;
13493;SDS011;6819;50.886;4.332;2022-07-30T15:30:12;3.67;;;1.88;;